»·PEaware :: N654B KBOI-KRNO

N654B :: KBOI-KRNO

FLIGHT INFORMATION

Flight Status: Arrived
Operator: Privately registered:
United States
More flights under this callsign
Pilot: Chase G. (14174)
Aircraft: PILATUS PC-12 EAGLE
(PC12)
More flights by this aircraft type
Origin: KBOI Boise Air Terminal/Gowen
United States
Destination: KRNO Reno/Tahoe Intl
United States
More flights between these airports :: More routes between these airports
Route: BOI3 BOI J7 FMG
File this flight plan on PilotEdge
Remarks:
Altitude:
(Current/Filed)
18,000ft
Speed:
(Current/Filed)
230kts
Departed: 16-Oct-20 04:27 PM
Arrived: 16-Oct-20 05:44 PM
Distance/Time
Traveled:
291nm/1:17
Distance/Time
To Go:
Arrived

Flight Plot

Page will automatically refresh every two minutes.

Flight plan parsing failed; only flown route is shown


Map Options




Map Legend


Flown Route
Filed Route
Departure Airport
Arrival Airport
Navaid (VOR, NDB)
Fix

Horizontal Profiles

Position Reports

Time Latitude Longitude Heading Altitude Ground
Speed
16-Oct-20 15:56 43.569897 -116.228351 2 2840ft 0kts
16-Oct-20 15:57 43.569897 -116.228351 2 2840ft 0kts
16-Oct-20 15:58 43.569897 -116.228351 2 2840ft 0kts
16-Oct-20 15:59 43.569897 -116.228351 2 2840ft 0kts
16-Oct-20 16:00 43.569897 -116.228351 2 2840ft 0kts
16-Oct-20 16:01 43.569897 -116.228351 2 2840ft 0kts
16-Oct-20 16:02 43.569897 -116.228351 2 2840ft 0kts
16-Oct-20 16:03 43.569897 -116.228351 2 2840ft 0kts
16-Oct-20 16:04 43.569905 -116.228351 1 2840ft 0kts
16-Oct-20 16:05 43.569905 -116.228351 1 2840ft 0kts
16-Oct-20 16:06 43.569905 -116.228351 1 2840ft 0kts
16-Oct-20 16:07 43.569905 -116.228351 1 2840ft 0kts
16-Oct-20 16:08 43.569905 -116.228351 1 2840ft 0kts
16-Oct-20 16:09 43.569905 -116.228351 1 2840ft 0kts
16-Oct-20 16:10 43.569905 -116.228351 1 2840ft 0kts
16-Oct-20 16:11 43.569905 -116.228351 1 2840ft 0kts
16-Oct-20 16:12 43.569905 -116.228351 1 2840ft 0kts
16-Oct-20 16:13 43.569905 -116.228351 1 2840ft 0kts
16-Oct-20 16:14 43.569905 -116.228351 1 2840ft 0kts
16-Oct-20 16:15 43.569905 -116.228351 1 2840ft 0kts
16-Oct-20 16:16 43.569928 -116.228350 1 2840ft 1kts
16-Oct-20 16:17 43.570059 -116.228349 358 2840ft 0kts
16-Oct-20 16:18 43.570059 -116.228349 358 2840ft 0kts
16-Oct-20 16:19 43.570059 -116.228349 358 2840ft 0kts
16-Oct-20 16:20 43.570059 -116.228349 358 2840ft 0kts
16-Oct-20 16:21 43.570059 -116.228349 358 2840ft 0kts
16-Oct-20 16:22 43.570184 -116.228547 265 2839ft 5kts
16-Oct-20 16:23 43.569982 -116.230585 185 2836ft 0kts
16-Oct-20 16:24 43.569905 -116.232532 296 2834ft 12kts
16-Oct-20 16:25 43.570716 -116.236396 206 2826ft 7kts
16-Oct-20 16:26 43.567626 -116.229560 116 2841ft 96kts
16-Oct-20 16:27 43.552159 -116.185904 116 3921ft 153kts
16-Oct-20 16:28 43.517515 -116.159573 192 5746ft 165kts
16-Oct-20 16:29 43.488688 -116.202864 238 7647ft 161kts
16-Oct-20 16:30 43.463320 -116.253174 239 9536ft 162kts
16-Oct-20 16:31 43.437056 -116.303219 246 11440ft 162kts
16-Oct-20 16:32 43.410730 -116.353494 248 13123ft 164kts
16-Oct-20 16:33 43.383823 -116.404554 248 14694ft 167kts
16-Oct-20 16:34 43.356340 -116.456536 247 16150ft 170kts
16-Oct-20 16:35 43.328412 -116.509213 247 17542ft 172kts
16-Oct-20 16:36 43.298860 -116.565103 245 18171ft 203kts
16-Oct-20 16:37 43.262791 -116.632772 244 18163ft 231kts
16-Oct-20 16:38 43.223813 -116.705718 243 18168ft 240kts
16-Oct-20 16:39 43.184027 -116.780081 242 18167ft 244kts
16-Oct-20 16:40 43.143746 -116.855205 242 18168ft 245kts
16-Oct-20 16:41 43.103220 -116.930580 242 18177ft 246kts
16-Oct-20 16:42 43.062655 -117.005859 242 18196ft 246kts
16-Oct-20 16:43 43.021992 -117.081138 242 18218ft 246kts
16-Oct-20 16:45 42.981271 -117.156301 242 18228ft 247kts
16-Oct-20 16:46 42.940396 -117.231581 242 18228ft 247kts
16-Oct-20 16:47 42.899343 -117.307004 242 18227ft 248kts
16-Oct-20 16:48 42.858056 -117.382625 242 18221ft 248kts
16-Oct-20 16:49 42.816947 -117.457759 241 18221ft 248kts
16-Oct-20 16:50 42.775731 -117.532901 241 18221ft 248kts
16-Oct-20 16:51 42.734388 -117.608084 241 18221ft 249kts
16-Oct-20 16:52 42.692688 -117.683727 240 18227ft 250kts
16-Oct-20 16:53 42.650926 -117.759290 240 18226ft 252kts
16-Oct-20 16:54 42.608759 -117.835358 240 18226ft 252kts
16-Oct-20 16:55 42.551161 -117.892406 211 18244ft 270kts
16-Oct-20 16:56 42.482642 -117.934437 211 18234ft 271kts
16-Oct-20 16:57 42.413720 -117.976638 211 18237ft 272kts
16-Oct-20 16:58 42.345071 -118.018577 211 18240ft 272kts
16-Oct-20 16:59 42.275965 -118.060676 211 18243ft 272kts
16-Oct-20 17:00 42.207033 -118.102582 210 18245ft 272kts
16-Oct-20 17:01 42.138226 -118.144305 210 18245ft 272kts
16-Oct-20 17:01 42.080627 -118.179158 210 18246ft 272kts
16-Oct-20 17:03 42.000060 -118.227792 210 18254ft 272kts
16-Oct-20 17:03 41.942596 -118.262415 210 18261ft 272kts
16-Oct-20 17:04 41.873662 -118.303819 210 18260ft 272kts
16-Oct-20 17:05 41.804720 -118.345148 210 18259ft 271kts
16-Oct-20 17:06 41.735832 -118.386354 210 18260ft 271kts
16-Oct-20 17:07 41.666920 -118.427463 210 18260ft 271kts
16-Oct-20 17:08 41.598005 -118.468487 210 18260ft 271kts
16-Oct-20 17:09 41.528886 -118.509545 209 18260ft 272kts
16-Oct-20 17:10 41.459975 -118.550358 209 18260ft 272kts
16-Oct-20 17:11 41.390899 -118.591189 209 18267ft 272kts
16-Oct-20 17:12 41.321829 -118.631924 209 18279ft 271kts
16-Oct-20 17:13 41.252766 -118.672570 208 18293ft 272kts
16-Oct-20 17:14 41.183250 -118.713353 208 18293ft 273kts
16-Oct-20 17:15 41.114034 -118.753891 208 18293ft 273kts
16-Oct-20 17:16 41.044395 -118.794569 208 18293ft 273kts
16-Oct-20 17:17 40.974857 -118.835103 208 18293ft 273kts
16-Oct-20 17:18 40.905384 -118.875523 207 18294ft 273kts
16-Oct-20 17:19 40.835804 -118.915874 207 18289ft 273kts
16-Oct-20 17:20 40.766354 -118.956091 207 18291ft 272kts
16-Oct-20 17:21 40.696981 -118.996144 207 18299ft 272kts
16-Oct-20 17:22 40.627641 -119.036115 207 18307ft 272kts
16-Oct-20 17:23 40.558245 -119.075996 207 18307ft 273kts
16-Oct-20 17:24 40.488770 -119.115867 207 18308ft 273kts
16-Oct-20 17:25 40.419185 -119.155672 207 18309ft 273kts
16-Oct-20 17:26 40.349732 -119.195349 207 18309ft 273kts
16-Oct-20 17:27 40.280113 -119.234996 207 18315ft 272kts
16-Oct-20 17:28 40.210650 -119.274488 206 18331ft 272kts
16-Oct-20 17:29 40.140965 -119.314023 206 17975ft 277kts
16-Oct-20 17:30 40.070361 -119.353970 206 16778ft 278kts
16-Oct-20 17:31 39.999852 -119.393780 206 15488ft 275kts
16-Oct-20 17:32 39.937591 -119.445414 232 14177ft 266kts
16-Oct-20 17:33 39.890684 -119.519556 233 12883ft 264kts
16-Oct-20 17:34 39.844422 -119.592999 232 11580ft 262kts
16-Oct-20 17:35 39.815634 -119.675671 270 10259ft 259kts
16-Oct-20 17:36 39.803017 -119.759654 209 9177ft 243kts
16-Oct-20 17:37 39.739668 -119.766163 179 8170ft 222kts
16-Oct-20 17:38 39.681553 -119.766556 178 7648ft 193kts
16-Oct-20 17:39 39.632994 -119.766453 178 6827ft 163kts
16-Oct-20 17:40 39.587520 -119.766558 178 5901ft 159kts
16-Oct-20 17:41 39.548835 -119.766594 178 5212ft 120kts
16-Oct-20 17:42 39.516374 -119.766737 178 4510ft 111kts
16-Oct-20 17:43 39.498173 -119.766813 175 4421ft 20kts
16-Oct-20 17:44 39.497360 -119.765561 92 4421ft 0kts
16-Oct-20 17:45 39.498499 -119.765738 0 4421ft 9kts
16-Oct-20 17:46 39.501008 -119.764778 85 4421ft 2kts
16-Oct-20 17:47 39.501009 -119.764755 86 4421ft 0kts

Navigation Log

Ident Type
Flight plan parsing failed, navigation log unavailable